Time;durP1;ratioP1;P1;durP2;ratioP2;P2;SDS_P1;SDS_P2;PMS_P1;PMS_P2;Temp;Humidity;BMP_temperature;BMP_pressure;BME280_temperature;BME280_humidity;BME280_pressure;Samples;Min_cycle;Max_cycle;Signal;HPM_P1;HPM_P2
2023/05/20 00:01:39;;;;;;;5.53;3.05;;;;;;;;;;5033193;28;20045;-68
2023/05/20 00:04:24;;;;;;;5.05;3.00;;;;;;;;;;5034037;28;20024;-77
2023/05/20 00:07:09;;;;;;;5.10;2.72;;;;;;;;;;5031205;28;20064;-78
2023/05/20 00:09:55;;;;;;;6.78;3.22;;;;;;;;;;5031895;28;20048;-77
2023/05/20 00:12:40;;;;;;;6.93;3.33;;;;;;;;;;5033342;28;20031;-78
2023/05/20 00:15:25;;;;;;;5.45;2.72;;;;;;;;;;5033781;28;20025;-78
2023/05/20 00:18:11;;;;;;;5.03;2.78;;;;;;;;;;5026271;28;20483;-78
2023/05/20 00:20:56;;;;;;;4.15;2.40;;;;;;;;;;5033942;28;20078;-71
2023/05/20 00:23:41;;;;;;;5.75;2.83;;;;;;;;;;5029665;28;20031;-72
2023/05/20 00:26:27;;;;;;;5.25;3.03;;;;;;;;;;5031337;28;20459;-71
2023/05/20 00:29:13;;;;;;;5.80;2.55;;;;;;;;;;5034028;28;20025;-70
2023/05/20 00:31:58;;;;;;;6.10;2.72;;;;;;;;;;5035945;28;20049;-71
2023/05/20 00:34:43;;;;;;;6.22;2.92;;;;;;;;;;5032658;28;20036;-72
2023/05/20 00:37:28;;;;;;;7.57;2.88;;;;;;;;;;5032295;28;20031;-72
2023/05/20 00:40:14;;;;;;;4.90;2.83;;;;;;;;;;5020325;28;20040;-68
2023/05/20 00:43:00;;;;;;;5.88;2.75;;;;;;;;;;5030805;28;20025;-68
2023/05/20 00:45:45;;;;;;;4.40;2.78;;;;;;;;;;5032819;28;20053;-68
2023/05/20 00:48:35;;;;;;;7.35;2.95;;;;;;;;;;5033182;28;20029;-68
2023/05/20 00:51:20;;;;;;;6.10;2.63;;;;;;;;;;5030831;28;20476;-68
2023/05/20 00:54:05;;;;;;;5.70;2.97;;;;;;;;;;5028877;28;20048;-67
2023/05/20 00:56:51;;;;;;;6.00;2.78;;;;;;;;;;5032173;28;20032;-67
2023/05/20 00:59:37;;;;;;;7.68;3.00;;;;;;;;;;5028773;28;20120;-66
2023/05/20 01:02:22;;;;;;;6.47;3.85;;;;;;;;;;5037327;28;20393;-66
2023/05/20 01:05:08;;;;;;;5.03;3.22;;;;;;;;;;5036113;28;20047;-69
2023/05/20 01:07:53;;;;;;;6.90;2.83;;;;;;;;;;5024447;28;20078;-66
2023/05/20 01:10:41;;;;;;;4.10;2.90;;;;;;;;;;5035511;28;20036;-69
2023/05/20 01:13:28;;;;;;;7.07;3.42;;;;;;;;;;5033976;28;20503;-67
2023/05/20 01:16:16;;;;;;;5.50;2.60;;;;;;;;;;5025173;28;20017;-69
2023/05/20 01:19:05;;;;;;;4.65;2.83;;;;;;;;;;5033118;28;21001;-71
2023/05/20 01:21:52;;;;;;;4.23;2.67;;;;;;;;;;5035608;28;20021;-71
2023/05/20 01:24:41;;;;;;;4.40;2.63;;;;;;;;;;5025272;28;20040;-72
2023/05/20 01:27:29;;;;;;;9.13;3.38;;;;;;;;;;5036326;28;20392;-71
2023/05/20 01:30:14;;;;;;;6.75;3.00;;;;;;;;;;5044944;28;20181;-72
2023/05/20 01:33:01;;;;;;;4.85;2.83;;;;;;;;;;5023710;28;20012;-69
2023/05/20 01:35:47;;;;;;;5.18;3.17;;;;;;;;;;5036242;28;20021;-72
2023/05/20 01:38:32;;;;;;;7.63;2.85;;;;;;;;;;5024404;28;20036;-72
2023/05/20 01:41:18;;;;;;;4.95;2.70;;;;;;;;;;5043128;28;20047;-72
2023/05/20 01:44:04;;;;;;;5.13;2.53;;;;;;;;;;5034403;28;20116;-71
2023/05/20 01:46:49;;;;;;;11.05;3.55;;;;;;;;;;5037172;28;20078;-71
2023/05/20 01:49:35;;;;;;;7.18;3.40;;;;;;;;;;5035975;28;20106;-71
2023/05/20 01:52:21;;;;;;;6.50;3.85;;;;;;;;;;5035331;28;20028;-70
2023/05/20 01:55:06;;;;;;;4.47;2.85;;;;;;;;;;5035242;28;20551;-69
2023/05/20 01:57:51;;;;;;;5.72;2.95;;;;;;;;;;5056233;28;20443;-70
2023/05/20 02:00:37;;;;;;;8.48;3.30;;;;;;;;;;5037113;28;20060;-70
2023/05/20 02:03:22;;;;;;;8.77;3.45;;;;;;;;;;5035876;28;20036;-69
2023/05/20 02:06:07;;;;;;;6.90;3.17;;;;;;;;;;5027911;28;20072;-69
2023/05/20 02:08:52;;;;;;;5.05;3.00;;;;;;;;;;5025330;28;20029;-67
2023/05/20 02:11:38;;;;;;;5.25;3.00;;;;;;;;;;5036003;28;20043;-69
2023/05/20 02:14:23;;;;;;;6.55;2.90;;;;;;;;;;5035906;28;20062;-72
2023/05/20 02:17:08;;;;;;;6.38;2.83;;;;;;;;;;5035821;28;20410;-72
2023/05/20 02:19:53;;;;;;;5.72;3.63;;;;;;;;;;5031602;28;20146;-71
2023/05/20 02:22:38;;;;;;;4.40;2.63;;;;;;;;;;5024188;28;20017;-72
2023/05/20 02:25:24;;;;;;;7.10;3.22;;;;;;;;;;5035200;28;20045;-71
2023/05/20 02:28:12;;;;;;;6.40;3.90;;;;;;;;;;5035035;28;20476;-76
2023/05/20 02:30:57;;;;;;;6.60;3.40;;;;;;;;;;5039455;28;20033;-67
2023/05/20 02:33:43;;;;;;;6.97;3.00;;;;;;;;;;5035056;28;20021;-68
2023/05/20 02:36:28;;;;;;;9.25;3.15;;;;;;;;;;5033706;28;20041;-69
2023/05/20 02:39:13;;;;;;;6.55;3.65;;;;;;;;;;5035356;28;20021;-68
2023/05/20 02:41:58;;;;;;;8.73;3.90;;;;;;;;;;5024461;28;20063;-70
2023/05/20 02:44:43;;;;;;;4.97;3.20;;;;;;;;;;5033112;28;20384;-66
2023/05/20 02:47:29;;;;;;;5.30;2.92;;;;;;;;;;5035723;28;20037;-69
2023/05/20 02:50:14;;;;;;;7.55;3.08;;;;;;;;;;5028096;28;20025;-70
2023/05/20 02:52:59;;;;;;;5.32;3.30;;;;;;;;;;5030441;28;20067;-71
2023/05/20 02:55:46;;;;;;;4.85;3.28;;;;;;;;;;5034843;28;20029;-70
2023/05/20 02:58:32;;;;;;;5.32;2.60;;;;;;;;;;5041324;28;20120;-70
2023/05/20 03:01:17;;;;;;;5.35;3.05;;;;;;;;;;5025595;28;20040;-70
2023/05/20 03:04:02;;;;;;;6.38;3.28;;;;;;;;;;5032623;28;20024;-72
2023/05/20 03:06:47;;;;;;;7.20;3.88;;;;;;;;;;5034936;28;20044;-67
2023/05/20 03:09:32;;;;;;;6.90;3.58;;;;;;;;;;5035070;28;20047;-75
2023/05/20 03:12:18;;;;;;;4.45;2.80;;;;;;;;;;5029155;28;20050;-76
2023/05/20 03:15:03;;;;;;;5.70;3.00;;;;;;;;;;5034638;28;20422;-76
2023/05/20 03:17:48;;;;;;;6.20;3.60;;;;;;;;;;5033492;28;20017;-77
2023/05/20 03:20:37;;;;;;;5.97;2.97;;;;;;;;;;5034670;28;20048;-75
2023/05/20 03:23:22;;;;;;;6.57;3.30;;;;;;;;;;5029121;28;20028;-70
2023/05/20 03:26:07;;;;;;;5.55;3.28;;;;;;;;;;5033861;28;20480;-73
2023/05/20 03:28:52;;;;;;;9.18;3.25;;;;;;;;;;5028229;28;20032;-72
2023/05/20 03:31:38;;;;;;;4.85;3.05;;;;;;;;;;5042440;28;20021;-72
2023/05/20 03:34:23;;;;;;;4.78;3.20;;;;;;;;;;5031436;28;20037;-73
2023/05/20 03:37:08;;;;;;;4.40;2.83;;;;;;;;;;5028112;28;20029;-73
2023/05/20 03:39:53;;;;;;;5.18;3.35;;;;;;;;;;5027188;28;20530;-71
2023/05/20 03:42:38;;;;;;;6.13;3.58;;;;;;;;;;5033519;28;20111;-69
2023/05/20 03:45:24;;;;;;;5.05;3.22;;;;;;;;;;5024689;28;20415;-74
2023/05/20 03:48:09;;;;;;;6.32;3.60;;;;;;;;;;5032039;28;20032;-72
2023/05/20 03:50:54;;;;;;;5.50;2.88;;;;;;;;;;5048189;28;20028;-71
2023/05/20 03:53:40;;;;;;;5.78;2.97;;;;;;;;;;5034727;28;20033;-71
2023/05/20 03:56:25;;;;;;;5.13;2.90;;;;;;;;;;5022324;28;20531;-73
2023/05/20 03:59:10;;;;;;;5.65;3.33;;;;;;;;;;5027249;28;20037;-70
2023/05/20 04:01:56;;;;;;;5.97;3.20;;;;;;;;;;5033164;28;20028;-70
2023/05/20 04:04:44;;;;;;;5.32;3.53;;;;;;;;;;5034520;28;20064;-70
2023/05/20 04:07:29;;;;;;;5.78;3.00;;;;;;;;;;5029584;28;20140;-70
2023/05/20 04:10:15;;;;;;;7.50;3.10;;;;;;;;;;5046785;28;20566;-70
2023/05/20 04:13:00;;;;;;;5.72;2.88;;;;;;;;;;5034225;28;20025;-71
2023/05/20 04:15:46;;;;;;;5.32;3.05;;;;;;;;;;5026765;28;20036;-72
2023/05/20 04:18:31;;;;;;;5.55;3.22;;;;;;;;;;5025626;28;20057;-70
2023/05/20 04:21:17;;;;;;;5.45;3.05;;;;;;;;;;5024372;28;20488;-69
2023/05/20 04:24:03;;;;;;;6.22;3.35;;;;;;;;;;5032975;28;20074;-69
2023/05/20 04:26:48;;;;;;;4.50;2.80;;;;;;;;;;5033620;28;20017;-68
2023/05/20 04:29:34;;;;;;;6.43;3.28;;;;;;;;;;5019606;28;20040;-69
2023/05/20 04:32:19;;;;;;;6.65;3.45;;;;;;;;;;5033341;28;20017;-70
2023/05/20 04:35:10;;;;;;;9.80;2.92;;;;;;;;;;5021829;28;20033;-68
2023/05/20 04:37:55;;;;;;;5.60;3.53;;;;;;;;;;5031245;28;20021;-66
2023/05/20 04:40:40;;;;;;;5.95;3.30;;;;;;;;;;5033378;28;20040;-69
2023/05/20 04:43:28;;;;;;;5.88;3.33;;;;;;;;;;5032410;28;20028;-67
2023/05/20 04:46:14;;;;;;;6.03;3.25;;;;;;;;;;5029451;28;20116;-66
2023/05/20 04:49:00;;;;;;;5.22;3.08;;;;;;;;;;5031186;28;20050;-67
2023/05/20 04:51:46;;;;;;;6.90;3.28;;;;;;;;;;5033295;28;20024;-66
2023/05/20 04:54:31;;;;;;;6.53;3.50;;;;;;;;;;5028701;28;20041;-67
2023/05/20 04:57:19;;;;;;;7.90;3.13;;;;;;;;;;5035016;28;20135;-72
2023/05/20 05:00:06;;;;;;;6.95;3.13;;;;;;;;;;5033109;28;20102;-70
2023/05/20 05:02:51;;;;;;;5.00;3.10;;;;;;;;;;5031853;28;20128;-69
2023/05/20 05:05:41;;;;;;;5.30;3.28;;;;;;;;;;5030774;28;20108;-71
2023/05/20 05:08:26;;;;;;;5.88;3.03;;;;;;;;;;5033567;28;20033;-69
2023/05/20 05:11:11;;;;;;;5.55;3.10;;;;;;;;;;5033634;28;20082;-70
2023/05/20 05:13:56;;;;;;;6.45;3.45;;;;;;;;;;5017327;28;20025;-71
2023/05/20 05:16:41;;;;;;;5.63;3.30;;;;;;;;;;5033541;28;20029;-72
2023/05/20 05:19:27;;;;;;;6.05;3.28;;;;;;;;;;5025169;28;20461;-73
2023/05/20 05:22:12;;;;;;;6.00;3.65;;;;;;;;;;5033468;28;20025;-73
2023/05/20 05:24:57;;;;;;;6.75;3.83;;;;;;;;;;5025951;28;20028;-73
2023/05/20 05:27:43;;;;;;;8.27;3.97;;;;;;;;;;5030218;28;20028;-71
2023/05/20 05:30:28;;;;;;;5.70;3.45;;;;;;;;;;5043389;28;20028;-70
2023/05/20 05:33:14;;;;;;;6.20;4.43;;;;;;;;;;5031055;28;20032;-69
2023/05/20 05:36:00;;;;;;;6.60;3.67;;;;;;;;;;5034502;28;20025;-70
2023/05/20 05:38:45;;;;;;;6.70;4.20;;;;;;;;;;5037195;28;20028;-68
2023/05/20 05:41:31;;;;;;;6.45;4.25;;;;;;;;;;5036068;28;20029;-68
2023/05/20 05:44:16;;;;;;;5.95;3.75;;;;;;;;;;5027619;28;20022;-67
2023/05/20 05:47:02;;;;;;;6.82;4.32;;;;;;;;;;5025665;28;20040;-69
2023/05/20 05:49:47;;;;;;;6.72;4.57;;;;;;;;;;5050165;28;20114;-71
2023/05/20 05:52:32;;;;;;;8.95;4.15;;;;;;;;;;5035147;28;20033;-66
2023/05/20 05:55:18;;;;;;;6.82;4.40;;;;;;;;;;5034138;28;20112;-73
2023/05/20 05:58:03;;;;;;;6.45;4.10;;;;;;;;;;5041025;28;20031;-71
2023/05/20 06:00:52;;;;;;;7.32;4.20;;;;;;;;;;5033519;28;20037;-71
2023/05/20 06:03:37;;;;;;;7.80;4.40;;;;;;;;;;5050153;28;20025;-71
2023/05/20 06:06:22;;;;;;;7.53;3.70;;;;;;;;;;5020174;28;20060;-72
2023/05/20 06:09:08;;;;;;;8.23;4.03;;;;;;;;;;5024606;28;20040;-72
2023/05/20 06:11:53;;;;;;;6.93;3.95;;;;;;;;;;5043721;28;20024;-73
2023/05/20 06:14:38;;;;;;;8.90;3.85;;;;;;;;;;5036612;28;20481;-74
2023/05/20 06:17:23;;;;;;;8.40;4.75;;;;;;;;;;5024737;28;20361;-73
2023/05/20 06:20:09;;;;;;;7.38;3.80;;;;;;;;;;5036383;28;20039;-74
2023/05/20 06:22:54;;;;;;;6.85;3.90;;;;;;;;;;5036860;28;20036;-74
2023/05/20 06:25:39;;;;;;;7.70;4.45;;;;;;;;;;5035690;28;20048;-73
2023/05/20 06:28:27;;;;;;;7.80;3.92;;;;;;;;;;5027119;28;20086;-71
2023/05/20 06:31:13;;;;;;;6.50;4.18;;;;;;;;;;5034279;28;20025;-75
2023/05/20 06:33:58;;;;;;;6.80;4.43;;;;;;;;;;5035798;28;20029;-75
2023/05/20 06:36:43;;;;;;;9.73;5.00;;;;;;;;;;5035021;28;20047;-74
2023/05/20 06:39:28;;;;;;;13.35;4.93;;;;;;;;;;5034412;28;20506;-74
2023/05/20 06:42:13;;;;;;;8.18;4.03;;;;;;;;;;5035281;28;20021;-73
2023/05/20 06:44:59;;;;;;;8.50;4.22;;;;;;;;;;5035246;28;20017;-78
2023/05/20 06:47:44;;;;;;;8.70;4.63;;;;;;;;;;5035049;28;20021;-67
2023/05/20 06:50:29;;;;;;;8.13;4.75;;;;;;;;;;5035744;28;20021;-71
2023/05/20 06:53:15;;;;;;;9.25;5.40;;;;;;;;;;5023488;28;20017;-69
2023/05/20 06:56:01;;;;;;;8.88;4.22;;;;;;;;;;5027758;28;20497;-69
2023/05/20 06:58:46;;;;;;;6.85;4.82;;;;;;;;;;5022961;28;20094;-69
2023/05/20 07:01:31;;;;;;;6.00;4.10;;;;;;;;;;5034824;28;20137;-72
2023/05/20 07:04:16;;;;;;;8.35;5.15;;;;;;;;;;5035395;28;20369;-70
2023/05/20 07:07:02;;;;;;;8.60;4.45;;;;;;;;;;5027353;28;20045;-70
2023/05/20 07:09:47;;;;;;;8.13;4.88;;;;;;;;;;5034871;28;20033;-69
2023/05/20 07:12:32;;;;;;;7.38;4.60;;;;;;;;;;5035005;28;20468;-69
2023/05/20 07:15:17;;;;;;;9.70;5.05;;;;;;;;;;5035242;28;20021;-70
2023/05/20 07:18:03;;;;;;;5.97;4.03;;;;;;;;;;5027498;28;20037;-68
2023/05/20 07:20:48;;;;;;;7.65;4.78;;;;;;;;;;5020979;28;20032;-68
2023/05/20 07:23:33;;;;;;;8.20;4.70;;;;;;;;;;5033944;28;20480;-71
2023/05/20 07:26:18;;;;;;;6.50;4.35;;;;;;;;;;5026619;28;20036;-68
2023/05/20 07:29:04;;;;;;;6.45;4.30;;;;;;;;;;5029549;28;20541;-67
2023/05/20 07:31:49;;;;;;;6.60;4.55;;;;;;;;;;5024224;28;20598;-70
2023/05/20 07:34:34;;;;;;;10.18;5.25;;;;;;;;;;5034865;28;20549;-68
2023/05/20 07:37:20;;;;;;;6.57;4.47;;;;;;;;;;5028902;28;20028;-68
2023/05/20 07:40:06;;;;;;;7.60;4.82;;;;;;;;;;5029642;28;20033;-71
2023/05/20 07:42:51;;;;;;;6.18;4.32;;;;;;;;;;5033822;28;20035;-68
2023/05/20 07:45:36;;;;;;;7.57;4.63;;;;;;;;;;5028794;28;20037;-69
2023/05/20 07:48:22;;;;;;;6.78;4.68;;;;;;;;;;5022909;28;20453;-69
2023/05/20 07:51:07;;;;;;;6.82;4.80;;;;;;;;;;5027888;28;20017;-69
2023/05/20 07:53:52;;;;;;;8.75;5.00;;;;;;;;;;5033716;28;20215;-70
2023/05/20 07:56:37;;;;;;;5.90;4.20;;;;;;;;;;5048575;28;20021;-70
2023/05/20 07:59:23;;;;;;;6.43;4.00;;;;;;;;;;5028884;28;20032;-72
2023/05/20 08:02:08;;;;;;;6.47;4.18;;;;;;;;;;5021181;28;20017;-69
2023/05/20 08:04:53;;;;;;;6.80;4.50;;;;;;;;;;5034044;28;20013;-67
2023/05/20 08:07:38;;;;;;;6.38;4.20;;;;;;;;;;5033159;28;20467;-67
2023/05/20 08:10:23;;;;;;;6.50;4.53;;;;;;;;;;5030637;28;20033;-67
2023/05/20 08:13:09;;;;;;;8.45;4.60;;;;;;;;;;5027903;28;20108;-68
2023/05/20 08:15:54;;;;;;;6.80;4.35;;;;;;;;;;5033421;28;20021;-71
2023/05/20 08:18:39;;;;;;;7.18;4.30;;;;;;;;;;5033926;28;20079;-68
2023/05/20 08:21:25;;;;;;;7.85;4.60;;;;;;;;;;5025977;28;20036;-71
2023/05/20 08:24:10;;;;;;;7.55;4.82;;;;;;;;;;5034350;28;20450;-69
2023/05/20 08:26:56;;;;;;;5.55;3.80;;;;;;;;;;5033372;28;20025;-71
2023/05/20 08:29:41;;;;;;;5.68;4.25;;;;;;;;;;5037209;28;20498;-71
2023/05/20 08:32:26;;;;;;;7.72;4.43;;;;;;;;;;5038662;28;20028;-72
2023/05/20 08:35:11;;;;;;;6.65;3.88;;;;;;;;;;5033240;28;20071;-72
2023/05/20 08:37:57;;;;;;;8.07;4.47;;;;;;;;;;5033515;28;20480;-71
2023/05/20 08:40:42;;;;;;;6.85;4.18;;;;;;;;;;5033728;28;20083;-72
2023/05/20 08:43:29;;;;;;;6.75;4.53;;;;;;;;;;5033414;28;20021;-71
2023/05/20 08:46:14;;;;;;;6.30;4.18;;;;;;;;;;5033371;28;20040;-71
2023/05/20 08:48:59;;;;;;;6.85;4.60;;;;;;;;;;5032505;28;20021;-72
2023/05/20 08:51:46;;;;;;;7.60;4.60;;;;;;;;;;5032337;28;20564;-71
2023/05/20 08:54:51;;;;;;;6.03;4.00;;;;;;;;;;5032900;28;20457;-71
2023/05/20 08:57:37;;;;;;;8.38;4.43;;;;;;;;;;5037309;28;20583;-69
2023/05/20 09:00:26;;;;;;;7.72;5.05;;;;;;;;;;5019985;28;20028;-68
2023/05/20 09:03:11;;;;;;;8.07;5.13;;;;;;;;;;5030972;28;20648;-70
2023/05/20 09:06:06;;;;;;;8.43;4.78;;;;;;;;;;5033374;28;21212;-68
2023/05/20 09:08:52;;;;;;;6.28;4.20;;;;;;;;;;5033665;28;20036;-69
2023/05/20 09:11:38;;;;;;;7.47;4.55;;;;;;;;;;5034983;28;20029;-68
2023/05/20 09:14:25;;;;;;;7.07;4.70;;;;;;;;;;5037700;28;20029;-67
2023/05/20 09:17:11;;;;;;;7.18;4.47;;;;;;;;;;5017580;28;20025;-73
2023/05/20 09:19:57;;;;;;;6.20;4.35;;;;;;;;;;5036891;28;20033;-71
2023/05/20 09:22:42;;;;;;;7.20;4.43;;;;;;;;;;5035403;28;20123;-72
2023/05/20 09:25:28;;;;;;;7.90;5.15;;;;;;;;;;5033742;28;20086;-73
2023/05/20 09:28:13;;;;;;;5.22;4.07;;;;;;;;;;5036832;28;20352;-71
2023/05/20 09:30:59;;;;;;;8.77;4.93;;;;;;;;;;5048535;28;20160;-69
2023/05/20 09:33:44;;;;;;;6.38;3.83;;;;;;;;;;5035888;28;20028;-68
2023/05/20 09:36:33;;;;;;;5.15;4.03;;;;;;;;;;5037030;28;20032;-67
2023/05/20 09:39:22;;;;;;;10.20;4.65;;;;;;;;;;5036862;28;20025;-67
2023/05/20 09:42:16;;;;;;;9.02;5.53;;;;;;;;;;5029147;28;20029;-66
2023/05/20 09:45:03;;;;;;;10.90;5.03;;;;;;;;;;5036567;28;20064;-67
2023/05/20 09:47:49;;;;;;;7.63;4.72;;;;;;;;;;5035629;28;20522;-68
2023/05/20 09:50:35;;;;;;;7.75;4.43;;;;;;;;;;5035352;28;20036;-71
2023/05/20 09:53:21;;;;;;;5.90;4.63;;;;;;;;;;5039895;28;20033;-81
2023/05/20 09:56:07;;;;;;;9.52;4.78;;;;;;;;;;5036484;28;20440;-78
2023/05/20 09:58:57;;;;;;;7.47;5.00;;;;;;;;;;5035284;28;20081;-75
2023/05/20 10:01:43;;;;;;;6.93;4.93;;;;;;;;;;5034922;28;20044;-76
2023/05/20 10:04:29;;;;;;;7.60;4.57;;;;;;;;;;5026786;28;20445;-77
2023/05/20 10:07:25;;;;;;;5.72;4.47;;;;;;;;;;5033974;28;20072;-70
2023/05/20 10:10:28;;;;;;;7.85;4.60;;;;;;;;;;5036345;28;20108;-71
2023/05/20 10:13:33;;;;;;;8.00;4.47;;;;;;;;;;5029492;28;20021;-66
2023/05/20 10:16:18;;;;;;;7.57;4.35;;;;;;;;;;5021355;28;20024;-69
2023/05/20 10:19:17;;;;;;;7.13;5.18;;;;;;;;;;5029132;28;20032;-68
2023/05/20 10:22:03;;;;;;;16.80;9.20;;;;;;;;;;5045789;28;20029;-71
2023/05/20 10:24:56;;;;;;;7.55;4.38;;;;;;;;;;5027580;28;20095;-68
2023/05/20 10:27:45;;;;;;;5.53;4.07;;;;;;;;;;5033295;28;20127;-66
2023/05/20 10:30:30;;;;;;;7.35;4.72;;;;;;;;;;5031912;28;20048;-68
2023/05/20 10:33:17;;;;;;;7.22;3.70;;;;;;;;;;5044139;28;20032;-67
2023/05/20 10:36:02;;;;;;;7.50;4.20;;;;;;;;;;5030893;28;20396;-70
2023/05/20 10:38:54;;;;;;;6.55;3.92;;;;;;;;;;5035872;28;20028;-67
2023/05/20 10:41:40;;;;;;;7.72;3.83;;;;;;;;;;5033830;28;20036;-68
2023/05/20 10:44:25;;;;;;;7.72;4.10;;;;;;;;;;5041033;28;20025;-69
2023/05/20 10:47:11;;;;;;;7.82;4.25;;;;;;;;;;5028898;28;20484;-74
2023/05/20 10:49:57;;;;;;;5.85;4.07;;;;;;;;;;5039064;28;20013;-68
2023/05/20 10:52:42;;;;;;;5.60;4.32;;;;;;;;;;5047599;28;20033;-69
2023/05/20 10:55:34;;;;;;;5.85;3.90;;;;;;;;;;5034703;28;20106;-67
2023/05/20 10:58:23;;;;;;;8.00;4.18;;;;;;;;;;5028039;28;20024;-70
2023/05/20 11:01:09;;;;;;;5.68;3.97;;;;;;;;;;5034369;28;20029;-70
2023/05/20 11:03:55;;;;;;;7.63;4.05;;;;;;;;;;5022525;28;20465;-68
2023/05/20 11:06:48;;;;;;;7.78;4.50;;;;;;;;;;5032964;28;20061;-70
2023/05/20 11:09:33;;;;;;;7.13;4.60;;;;;;;;;;5034752;28;20017;-69
2023/05/20 11:12:20;;;;;;;6.15;4.40;;;;;;;;;;5035142;28;20440;-71
2023/05/20 11:15:05;;;;;;;7.35;4.53;;;;;;;;;;5030287;28;20083;-70
2023/05/20 11:17:54;;;;;;;6.85;4.00;;;;;;;;;;5034888;28;20036;-70
2023/05/20 11:20:39;;;;;;;7.43;4.72;;;;;;;;;;5034286;28;20033;-69
2023/05/20 11:23:26;;;;;;;7.60;4.60;;;;;;;;;;5047758;28;20025;-68
2023/05/20 11:26:12;;;;;;;7.07;4.55;;;;;;;;;;5023585;28;20377;-74
2023/05/20 11:28:57;;;;;;;6.53;4.13;;;;;;;;;;5034931;28;20028;-74
2023/05/20 11:31:42;;;;;;;7.18;4.60;;;;;;;;;;5033608;28;20154;-74
2023/05/20 11:34:35;;;;;;;7.05;4.40;;;;;;;;;;5034224;28;20488;-75
2023/05/20 11:37:20;;;;;;;7.05;4.57;;;;;;;;;;5022986;28;20075;-73
2023/05/20 11:40:06;;;;;;;10.55;4.47;;;;;;;;;;5021443;28;20044;-69
2023/05/20 11:42:52;;;;;;;6.93;4.05;;;;;;;;;;5030128;28;20033;-77
2023/05/20 11:45:41;;;;;;;6.28;4.45;;;;;;;;;;5017531;28;20025;-76
2023/05/20 11:48:27;;;;;;;7.47;3.75;;;;;;;;;;5021338;28;20017;-78
2023/05/20 11:51:12;;;;;;;8.05;4.38;;;;;;;;;;5030000;28;20067;-77
2023/05/20 11:54:01;;;;;;;6.75;4.00;;;;;;;;;;5034275;28;20486;-79
2023/05/20 11:56:46;;;;;;;5.40;4.00;;;;;;;;;;5031174;28;20522;-77
2023/05/20 11:59:31;;;;;;;6.82;4.70;;;;;;;;;;5019459;28;20425;-67
2023/05/20 12:02:17;;;;;;;6.55;4.10;;;;;;;;;;5036359;28;20433;-67
2023/05/20 12:05:03;;;;;;;4.65;3.75;;;;;;;;;;5034191;28;20024;-67
2023/05/20 12:07:48;;;;;;;15.90;3.97;;;;;;;;;;5025781;28;20496;-67
2023/05/20 12:10:33;;;;;;;6.47;4.03;;;;;;;;;;5020374;28;20380;-65
2023/05/20 12:13:18;;;;;;;7.22;3.90;;;;;;;;;;5024888;28;20022;-66
2023/05/20 12:16:04;;;;;;;12.48;4.15;;;;;;;;;;5020143;28;20071;-70
2023/05/20 12:18:50;;;;;;;6.00;4.13;;;;;;;;;;5032399;28;20404;-69
2023/05/20 12:21:35;;;;;;;5.57;4.25;;;;;;;;;;5033357;28;20024;-68
2023/05/20 12:24:20;;;;;;;5.68;3.78;;;;;;;;;;5033752;28;20042;-66
2023/05/20 12:27:06;;;;;;;5.75;4.10;;;;;;;;;;5033960;28;20021;-66
2023/05/20 12:29:51;;;;;;;5.68;3.85;;;;;;;;;;5024031;28;20028;-67
2023/05/20 12:32:37;;;;;;;5.75;3.85;;;;;;;;;;5037656;28;20017;-67
2023/05/20 12:35:35;;;;;;;5.68;4.03;;;;;;;;;;5047621;28;20025;-71
2023/05/20 12:38:20;;;;;;;6.78;3.97;;;;;;;;;;5045742;28;20044;-77
2023/05/20 12:41:06;;;;;;;6.55;3.95;;;;;;;;;;5030705;28;20047;-76
2023/05/20 12:43:51;;;;;;;6.15;4.22;;;;;;;;;;5016651;28;20024;-76
2023/05/20 12:46:36;;;;;;;8.65;4.72;;;;;;;;;;5029796;28;20090;-76
2023/05/20 12:49:21;;;;;;;9.43;4.03;;;;;;;;;;5020080;28;20116;-77
2023/05/20 12:52:06;;;;;;;5.65;4.20;;;;;;;;;;5032718;28;20047;-77
2023/05/20 12:54:52;;;;;;;8.02;4.22;;;;;;;;;;5032932;28;20079;-71
2023/05/20 12:57:38;;;;;;;7.05;4.15;;;;;;;;;;5027858;28;20063;-72
2023/05/20 13:00:24;;;;;;;7.70;3.63;;;;;;;;;;5019429;28;20124;-70
2023/05/20 13:03:09;;;;;;;8.00;4.15;;;;;;;;;;5033203;28;20025;-70
2023/05/20 13:05:55;;;;;;;4.80;3.72;;;;;;;;;;5033384;28;20028;-73
2023/05/20 13:08:40;;;;;;;6.25;4.05;;;;;;;;;;5018700;28;20079;-71
2023/05/20 13:11:25;;;;;;;6.20;4.20;;;;;;;;;;5026390;28;20024;-72
2023/05/20 13:14:11;;;;;;;4.93;3.50;;;;;;;;;;5021347;28;20491;-76
2023/05/20 13:16:56;;;;;;;5.32;3.90;;;;;;;;;;5032812;28;20055;-70
2023/05/20 13:19:41;;;;;;;7.45;3.83;;;;;;;;;;5033415;28;20572;-70
2023/05/20 13:22:27;;;;;;;6.60;3.35;;;;;;;;;;5032740;28;20029;-70
2023/05/20 13:25:12;;;;;;;5.13;3.35;;;;;;;;;;5047436;28;20021;-70
2023/05/20 13:27:57;;;;;;;6.72;3.53;;;;;;;;;;5030737;28;20516;-73
2023/05/20 13:30:42;;;;;;;5.95;3.20;;;;;;;;;;5035980;28;20513;-71
2023/05/20 13:33:28;;;;;;;5.53;4.05;;;;;;;;;;5032603;28;20029;-71
2023/05/20 13:36:13;;;;;;;5.65;3.53;;;;;;;;;;5033207;28;20063;-71
2023/05/20 13:38:58;;;;;;;7.00;3.50;;;;;;;;;;5032767;28;20029;-71
2023/05/20 13:41:43;;;;;;;4.43;3.30;;;;;;;;;;5021101;28;20032;-72
2023/05/20 13:44:29;;;;;;;4.95;3.30;;;;;;;;;;5033011;28;20033;-72
2023/05/20 13:47:14;;;;;;;5.70;3.50;;;;;;;;;;5032755;28;20447;-72
2023/05/20 13:49:59;;;;;;;6.10;3.80;;;;;;;;;;5031783;28;20043;-70
2023/05/20 13:52:44;;;;;;;6.78;3.60;;;;;;;;;;5047142;28;20033;-79
2023/05/20 13:55:30;;;;;;;5.25;3.08;;;;;;;;;;5046259;28;20472;-76
2023/05/20 13:58:15;;;;;;;6.30;3.15;;;;;;;;;;5039794;28;20103;-78
2023/05/20 14:01:02;;;;;;;6.28;3.25;;;;;;;;;;5022894;28;20160;-76
2023/05/20 14:03:47;;;;;;;7.47;3.78;;;;;;;;;;5020390;28;20016;-77
2023/05/20 14:06:33;;;;;;;5.15;3.65;;;;;;;;;;5033844;28;20041;-73
2023/05/20 14:09:18;;;;;;;6.97;3.60;;;;;;;;;;5035962;28;20112;-67
2023/05/20 14:12:04;;;;;;;5.00;3.53;;;;;;;;;;5036162;28;20029;-68
2023/05/20 14:14:49;;;;;;;5.35;3.72;;;;;;;;;;5036952;28;20072;-68
2023/05/20 14:17:35;;;;;;;4.65;3.20;;;;;;;;;;5036400;28;20028;-66
2023/05/20 14:20:20;;;;;;;4.78;3.30;;;;;;;;;;5032862;28;20040;-67
2023/05/20 14:23:05;;;;;;;5.25;3.33;;;;;;;;;;5027984;28;20025;-67
2023/05/20 14:25:51;;;;;;;6.30;3.50;;;;;;;;;;5035038;28;20358;-71
2023/05/20 14:28:36;;;;;;;4.95;3.33;;;;;;;;;;5032658;28;20092;-71
2023/05/20 14:31:21;;;;;;;6.82;4.07;;;;;;;;;;5042773;28;20035;-71
2023/05/20 14:34:06;;;;;;;6.35;3.50;;;;;;;;;;5033094;28;20036;-70
2023/05/20 14:36:51;;;;;;;4.88;3.50;;;;;;;;;;5036210;28;20039;-71
2023/05/20 14:39:37;;;;;;;7.88;3.22;;;;;;;;;;5032141;28;20025;-71
2023/05/20 14:42:23;;;;;;;5.35;3.28;;;;;;;;;;5035241;28;20031;-71
2023/05/20 14:45:08;;;;;;;4.78;3.38;;;;;;;;;;5035475;28;20102;-70
2023/05/20 14:47:53;;;;;;;4.65;3.10;;;;;;;;;;5035948;28;20028;-70
2023/05/20 14:50:39;;;;;;;4.82;3.45;;;;;;;;;;5029042;28;20032;-71
2023/05/20 14:53:24;;;;;;;5.07;3.08;;;;;;;;;;5030644;28;20026;-69
2023/05/20 14:56:10;;;;;;;6.35;4.05;;;;;;;;;;5031750;28;20083;-71
2023/05/20 14:58:56;;;;;;;6.25;3.53;;;;;;;;;;5035558;28;20091;-73
2023/05/20 15:01:41;;;;;;;5.70;3.38;;;;;;;;;;5031996;28;20033;-70
2023/05/20 15:04:26;;;;;;;6.70;3.33;;;;;;;;;;5035114;28;20490;-73
2023/05/20 15:07:11;;;;;;;5.82;3.63;;;;;;;;;;5033301;28;20063;-70
2023/05/20 15:09:56;;;;;;;5.55;3.40;;;;;;;;;;5033252;28;20029;-70
2023/05/20 15:12:42;;;;;;;3.72;2.90;;;;;;;;;;5034566;28;20472;-69
2023/05/20 15:15:27;;;;;;;5.03;3.58;;;;;;;;;;5031907;28;20025;-70
2023/05/20 15:18:12;;;;;;;5.65;3.05;;;;;;;;;;5034557;28;20590;-70
2023/05/20 15:20:59;;;;;;;7.13;3.20;;;;;;;;;;5029763;28;20028;-75
2023/05/20 15:23:44;;;;;;;5.75;3.08;;;;;;;;;;5048231;28;20065;-68
2023/05/20 15:26:31;;;;;;;6.18;3.25;;;;;;;;;;5034167;28;20052;-69
2023/05/20 15:29:16;;;;;;;5.63;3.58;;;;;;;;;;5034870;28;20028;-68
2023/05/20 15:32:01;;;;;;;5.25;3.60;;;;;;;;;;5028634;28;20049;-70
2023/05/20 15:34:46;;;;;;;4.72;2.78;;;;;;;;;;5034685;28;20021;-71
2023/05/20 15:37:32;;;;;;;7.10;3.45;;;;;;;;;;5034775;28;20047;-69
2023/05/20 15:40:17;;;;;;;4.57;3.20;;;;;;;;;;5029983;28;20025;-76
2023/05/20 15:43:03;;;;;;;6.05;3.60;;;;;;;;;;5033741;28;20120;-69
2023/05/20 15:45:48;;;;;;;4.95;3.80;;;;;;;;;;5044739;28;20040;-69
2023/05/20 15:48:36;;;;;;;7.40;4.03;;;;;;;;;;5021730;28;20067;-67
2023/05/20 15:51:22;;;;;;;5.32;3.28;;;;;;;;;;5040411;28;20520;-71
2023/05/20 15:54:07;;;;;;;8.00;3.55;;;;;;;;;;5031718;28;20032;-71
2023/05/20 15:56:52;;;;;;;5.82;3.75;;;;;;;;;;5031221;28;20404;-70
2023/05/20 15:59:38;;;;;;;4.57;3.20;;;;;;;;;;5013512;28;20404;-77
2023/05/20 16:02:23;;;;;;;5.72;3.53;;;;;;;;;;5024231;28;20018;-71
2023/05/20 16:05:08;;;;;;;6.75;3.50;;;;;;;;;;5017154;28;20037;-70
2023/05/20 16:07:55;;;;;;;8.05;4.65;;;;;;;;;;5024918;28;20516;-68
2023/05/20 16:10:40;;;;;;;5.60;3.80;;;;;;;;;;5035648;28;20036;-68
2023/05/20 16:13:26;;;;;;;5.05;3.17;;;;;;;;;;5028884;28;20391;-68
2023/05/20 16:16:12;;;;;;;5.30;3.45;;;;;;;;;;5033417;28;20047;-70
2023/05/20 16:18:58;;;;;;;6.57;3.58;;;;;;;;;;5033033;28;20127;-71
2023/05/20 16:21:43;;;;;;;4.63;3.33;;;;;;;;;;5044083;28;20049;-71
2023/05/20 16:24:28;;;;;;;4.88;3.50;;;;;;;;;;5032481;28;20024;-70
2023/05/20 16:27:13;;;;;;;12.63;3.60;;;;;;;;;;5033148;28;20487;-70
2023/05/20 16:29:59;;;;;;;6.88;3.70;;;;;;;;;;5039166;28;20016;-70
2023/05/20 16:32:44;;;;;;;7.40;3.75;;;;;;;;;;5030401;28;20151;-70
2023/05/20 16:35:29;;;;;;;6.22;3.92;;;;;;;;;;5033307;28;20025;-69